createdAt,value
2022-08-29T00:00:53.185Z,7.90
2022-08-29T00:03:32.530Z,5.70
2022-08-29T00:06:09.085Z,6.80
2022-08-29T00:08:43.268Z,7.50
2022-08-29T00:11:13.886Z,8.60
2022-08-29T00:14:20.924Z,8.90
2022-08-29T00:16:56.835Z,7.40
2022-08-29T00:19:38.513Z,9.70
2022-08-29T00:22:11.970Z,9.40
2022-08-29T00:24:41.915Z,10.70
2022-08-29T00:27:20.079Z,8.40
2022-08-29T00:29:50.829Z,7.80
2022-08-29T00:32:22.278Z,7.50
2022-08-29T00:34:54.000Z,6.60
2022-08-29T00:37:26.164Z,6.40
2022-08-29T00:39:56.441Z,9.70
2022-08-29T00:42:35.758Z,8.70
2022-08-29T00:45:12.036Z,7.20
2022-08-29T00:47:49.379Z,8.40
2022-08-29T00:50:30.389Z,6.30
2022-08-29T00:53:05.660Z,7.00
2022-08-29T00:55:37.846Z,6.70
2022-08-29T00:58:25.824Z,7.60
2022-08-29T01:00:59.082Z,7.50
2022-08-29T01:03:35.549Z,7.10
2022-08-29T01:06:07.659Z,7.20
2022-08-29T01:08:39.723Z,7.70
2022-08-29T01:11:41.235Z,6.30
2022-08-29T01:14:25.267Z,9.10
2022-08-29T01:17:09.024Z,6.20
2022-08-29T01:20:22.179Z,7.40
2022-08-29T01:23:23.658Z,7.00
2022-08-29T01:25:57.252Z,7.60
2022-08-29T01:28:50.751Z,7.30
2022-08-29T01:32:21.043Z,7.10
2022-08-29T01:34:59.978Z,7.10
2022-08-29T01:37:44.230Z,7.10
2022-08-29T01:40:43.413Z,6.90
2022-08-29T01:43:23.014Z,15.50
2022-08-29T01:46:42.652Z,8.50
2022-08-29T01:49:16.037Z,8.10
2022-08-29T01:51:46.343Z,7.50
2022-08-29T01:54:17.571Z,10.60
2022-08-29T01:57:07.600Z,7.20
2022-08-29T01:59:41.542Z,7.10
2022-08-29T02:02:22.858Z,7.50
2022-08-29T02:04:56.841Z,8.10
2022-08-29T02:07:31.079Z,7.20
2022-08-29T02:10:00.235Z,7.30
2022-08-29T02:12:33.423Z,6.50
2022-08-29T02:15:10.630Z,8.00
2022-08-29T02:17:40.582Z,8.80
2022-08-29T02:20:25.265Z,8.80
2022-08-29T02:23:00.404Z,7.50
2022-08-29T02:25:43.453Z,7.50
2022-08-29T02:28:18.800Z,7.70
2022-08-29T02:30:56.908Z,9.20
2022-08-29T02:33:31.531Z,7.30
2022-08-29T02:36:05.727Z,6.90
2022-08-29T02:38:40.444Z,6.80
2022-08-29T02:41:15.681Z,6.50
2022-08-29T02:46:18.948Z,8.70
2022-08-29T02:49:00.429Z,6.50
2022-08-29T02:54:05.056Z,8.00
2022-08-29T02:56:37.046Z,7.10
2022-08-29T02:59:14.613Z,7.30
2022-08-29T03:01:56.535Z,6.80
2022-08-29T03:04:34.664Z,7.50
2022-08-29T03:07:08.401Z,8.40
2022-08-29T03:09:45.768Z,7.10
2022-08-29T03:12:16.945Z,9.10
2022-08-29T03:14:51.453Z,8.20
2022-08-29T03:17:28.066Z,8.60
2022-08-29T03:20:23.794Z,6.40
2022-08-29T03:23:05.040Z,7.50
2022-08-29T03:25:39.177Z,9.00
2022-08-29T03:28:09.096Z,8.10
2022-08-29T03:30:42.382Z,8.80
2022-08-29T03:33:17.031Z,6.20
2022-08-29T03:35:58.117Z,7.50
2022-08-29T03:38:33.702Z,5.70
2022-08-29T03:41:05.223Z,7.00
2022-08-29T03:43:36.501Z,7.40
2022-08-29T03:46:08.136Z,7.10
2022-08-29T03:48:38.831Z,7.10
2022-08-29T03:51:12.499Z,7.50
2022-08-29T03:53:45.289Z,11.70
2022-08-29T03:56:18.921Z,8.40
2022-08-29T03:58:53.434Z,10.80
2022-08-29T04:03:59.849Z,6.80
2022-08-29T04:06:39.099Z,8.60
2022-08-29T04:09:13.853Z,11.30
2022-08-29T04:11:50.271Z,12.00
2022-08-29T04:14:21.633Z,8.20
2022-08-29T04:16:54.175Z,6.60
2022-08-29T04:19:25.486Z,5.50
2022-08-29T04:21:58.216Z,9.20
2022-08-29T04:24:29.359Z,7.20
2022-08-29T04:27:21.462Z,5.60
2022-08-29T04:29:55.891Z,6.90
2022-08-29T04:32:34.182Z,8.00
2022-08-29T04:35:05.615Z,7.40
2022-08-29T04:37:37.103Z,10.50
2022-08-29T04:40:09.629Z,10.20
2022-08-29T04:42:40.211Z,9.30
2022-08-29T04:45:13.822Z,10.20
2022-08-29T04:47:44.118Z,9.30
2022-08-29T04:50:38.419Z,9.40
2022-08-29T04:53:08.061Z,9.80
2022-08-29T04:55:40.541Z,7.10
2022-08-29T04:58:11.645Z,8.00
2022-08-29T05:00:42.502Z,8.70
2022-08-29T05:03:12.784Z,9.90
2022-08-29T05:05:43.846Z,8.70
2022-08-29T05:08:15.680Z,8.90
2022-08-29T05:11:11.052Z,10.50
2022-08-29T05:13:43.320Z,8.30
2022-08-29T05:16:30.283Z,8.20
2022-08-29T05:19:02.897Z,8.80
2022-08-29T05:21:58.511Z,10.60
2022-08-29T05:24:30.039Z,7.10
2022-08-29T05:27:00.337Z,7.80
2022-08-29T05:29:54.337Z,8.60
2022-08-29T05:32:44.428Z,8.50
2022-08-29T05:35:16.122Z,7.20
2022-08-29T05:38:09.154Z,9.70
2022-08-29T05:40:39.515Z,9.60
2022-08-29T05:43:11.511Z,7.50
2022-08-29T05:45:42.254Z,9.70
2022-08-29T05:48:16.933Z,8.20
2022-08-29T05:50:52.335Z,9.80
2022-08-29T05:53:25.084Z,10.00
2022-08-29T05:55:57.183Z,7.80
2022-08-29T05:58:27.283Z,8.10
2022-08-29T06:01:01.355Z,8.10
2022-08-29T06:03:58.050Z,8.80
2022-08-29T06:06:31.793Z,6.20
2022-08-29T06:09:05.692Z,9.10
2022-08-29T06:11:58.813Z,6.40
2022-08-29T06:14:29.683Z,7.60
2022-08-29T06:17:04.968Z,9.50
2022-08-29T06:19:38.600Z,8.00
2022-08-29T06:24:45.801Z,9.80
2022-08-29T06:27:17.247Z,5.90
2022-08-29T06:29:48.278Z,6.40
2022-08-29T06:32:17.718Z,9.10
2022-08-29T06:34:48.723Z,7.20
2022-08-29T06:37:20.531Z,10.20
2022-08-29T06:39:51.406Z,8.20
2022-08-29T06:42:25.675Z,8.30
2022-08-29T06:44:59.471Z,9.30
2022-08-29T06:47:30.514Z,7.80
2022-08-29T06:50:05.784Z,7.20
2022-08-29T06:52:36.479Z,8.70
2022-08-29T06:55:12.757Z,7.60
2022-08-29T06:57:46.519Z,8.60
2022-08-29T07:00:23.716Z,7.00
2022-08-29T07:02:55.144Z,7.80
2022-08-29T07:05:26.062Z,8.30
2022-08-29T07:07:55.283Z,9.80
2022-08-29T07:10:51.821Z,7.10
2022-08-29T07:13:28.181Z,9.60
2022-08-29T07:16:20.214Z,12.40
2022-08-29T07:18:53.924Z,10.10
2022-08-29T07:22:39.374Z,8.40
2022-08-29T07:25:14.761Z,10.50
2022-08-29T07:27:44.623Z,8.70
2022-08-29T07:30:30.482Z,13.00
2022-08-29T07:33:04.023Z,6.80
2022-08-29T07:35:34.593Z,10.70
2022-08-29T07:38:07.646Z,10.40
2022-08-29T07:40:37.124Z,7.80
2022-08-29T07:43:08.885Z,10.90
2022-08-29T07:45:41.601Z,7.80
2022-08-29T07:48:19.899Z,7.20
2022-08-29T07:51:00.571Z,9.30
2022-08-29T07:53:32.061Z,8.80
2022-08-29T07:56:08.920Z,8.90
2022-08-29T07:58:40.197Z,9.50
2022-08-29T08:01:21.199Z,8.80
2022-08-29T08:03:52.831Z,10.50
2022-08-29T08:06:27.875Z,5.80
2022-08-29T08:09:01.941Z,7.40
2022-08-29T08:11:33.723Z,10.30
2022-08-29T08:14:04.663Z,12.10
2022-08-29T08:16:35.443Z,8.50
2022-08-29T08:19:07.422Z,8.60
2022-08-29T08:21:46.932Z,6.40
2022-08-29T08:24:21.213Z,9.80
2022-08-29T08:26:51.019Z,7.80
2022-08-29T08:29:21.381Z,7.30
2022-08-29T08:32:06.071Z,6.90
2022-08-29T08:34:39.711Z,14.60
2022-08-29T08:37:11.204Z,10.40
2022-08-29T08:39:47.194Z,8.50
2022-08-29T08:42:36.949Z,9.00
2022-08-29T08:45:17.153Z,9.50
2022-08-29T08:48:11.912Z,7.30
2022-08-29T08:50:43.257Z,8.50
2022-08-29T08:53:29.411Z,11.70
2022-08-29T08:56:05.974Z,8.80
2022-08-29T08:58:42.185Z,6.90
2022-08-29T09:01:46.987Z,8.60
2022-08-29T09:05:20.064Z,7.50
2022-08-29T09:08:43.708Z,6.30
2022-08-29T09:11:42.757Z,7.90
2022-08-29T09:14:43.704Z,6.60
2022-08-29T09:17:36.489Z,10.20
2022-08-29T09:20:34.261Z,8.90
2022-08-29T09:23:13.715Z,16.00
2022-08-29T09:25:46.735Z,7.60
2022-08-29T09:31:34.820Z,5.00
2022-08-29T09:34:57.394Z,6.50
2022-08-29T09:37:37.340Z,5.70
2022-08-29T09:40:37.372Z,10.20
2022-08-29T09:43:12.066Z,5.10
2022-08-29T09:46:11.521Z,4.80
2022-08-29T09:48:45.807Z,5.40
2022-08-29T09:51:26.000Z,5.30
2022-08-29T09:54:12.816Z,6.90
2022-08-29T09:57:28.310Z,6.70
2022-08-29T10:04:38.026Z,5.40
2022-08-29T10:07:24.327Z,5.20
2022-08-29T10:09:58.149Z,5.90
2022-08-29T10:12:35.100Z,4.60
2022-08-29T10:15:19.670Z,7.10
2022-08-29T10:18:39.131Z,5.60
2022-08-29T10:25:38.814Z,5.20
2022-08-29T10:28:32.266Z,5.10
2022-08-29T10:31:02.525Z,3.90
2022-08-29T10:33:44.182Z,4.60
2022-08-29T10:36:26.778Z,5.10
2022-08-29T10:39:12.820Z,4.10
2022-08-29T10:42:06.406Z,4.60
2022-08-29T10:45:16.053Z,8.20
2022-08-29T10:48:07.872Z,4.90
2022-08-29T10:51:18.303Z,3.80
2022-08-29T10:53:55.529Z,5.80
2022-08-29T10:56:31.283Z,4.60
2022-08-29T10:59:29.247Z,3.70
2022-08-29T11:02:19.756Z,5.00
2022-08-29T11:04:57.476Z,6.10
2022-08-29T11:07:36.017Z,3.00
2022-08-29T11:10:31.699Z,4.10
2022-08-29T11:13:11.499Z,3.80
2022-08-29T11:16:14.519Z,3.00
2022-08-29T11:18:55.721Z,4.60
2022-08-29T11:21:28.346Z,2.80
2022-08-29T11:24:04.465Z,2.90
2022-08-29T11:27:04.138Z,3.30
2022-08-29T11:29:40.406Z,2.20
2022-08-29T11:32:22.478Z,3.10
2022-08-29T11:35:28.322Z,3.10
2022-08-29T11:38:36.971Z,2.70
2022-08-29T11:41:32.447Z,3.20
2022-08-29T11:44:20.124Z,3.40
2022-08-29T11:46:56.750Z,2.50
2022-08-29T11:49:39.703Z,4.40
2022-08-29T11:52:13.803Z,2.40
2022-08-29T11:55:23.219Z,2.40
2022-08-29T11:58:05.193Z,2.60
2022-08-29T12:00:44.510Z,5.90
2022-08-29T12:06:47.274Z,2.80
2022-08-29T12:09:27.375Z,5.40
2022-08-29T12:15:34.517Z,3.10
2022-08-29T12:18:36.627Z,3.60
2022-08-29T12:24:04.065Z,3.00
2022-08-29T12:26:48.001Z,4.30
2022-08-29T12:29:43.572Z,5.60
2022-08-29T12:32:22.907Z,3.90
2022-08-29T12:35:13.149Z,3.40
2022-08-29T12:38:26.077Z,4.10
2022-08-29T12:41:27.057Z,3.10
2022-08-29T12:44:00.615Z,3.80
2022-08-29T12:46:40.681Z,2.40
2022-08-29T12:49:23.547Z,2.90
2022-08-29T12:52:22.459Z,2.80
2022-08-29T12:54:56.455Z,4.80
2022-08-29T12:57:36.109Z,2.80
2022-08-29T13:00:12.771Z,2.80
2022-08-29T13:03:00.987Z,3.30
2022-08-29T13:05:33.392Z,2.60
2022-08-29T13:10:59.541Z,3.90
2022-08-29T13:13:32.368Z,3.20
2022-08-29T13:16:06.700Z,3.10
2022-08-29T13:18:53.598Z,2.70
2022-08-29T13:22:41.901Z,4.30
2022-08-29T13:25:13.660Z,4.40
2022-08-29T13:27:43.217Z,3.00
2022-08-29T13:30:24.126Z,2.10
2022-08-29T13:32:59.050Z,2.50
2022-08-29T13:35:34.265Z,2.50
2022-08-29T13:38:30.596Z,4.30
2022-08-29T13:41:02.154Z,4.40
2022-08-29T13:43:44.615Z,2.10
2022-08-29T13:46:27.810Z,3.50
2022-08-29T13:49:03.604Z,3.60
2022-08-29T13:51:35.347Z,2.30
2022-08-29T13:54:06.612Z,3.40
2022-08-29T13:59:13.540Z,4.70
2022-08-29T14:04:39.809Z,4.00
2022-08-29T14:07:14.519Z,2.40
2022-08-29T14:09:46.103Z,2.80
2022-08-29T14:12:17.455Z,3.00
2022-08-29T14:14:50.179Z,4.70
2022-08-29T14:17:23.560Z,3.70
2022-08-29T14:19:54.392Z,4.10
2022-08-29T14:22:25.129Z,3.60
2022-08-29T14:24:56.254Z,3.40
2022-08-29T14:27:26.236Z,2.90
2022-08-29T14:29:56.043Z,3.20
2022-08-29T14:32:27.280Z,3.90
2022-08-29T14:34:59.761Z,3.30
2022-08-29T14:37:29.333Z,3.60
2022-08-29T14:40:01.726Z,4.80
2022-08-29T14:42:33.822Z,5.30
2022-08-29T14:45:06.044Z,4.90
2022-08-29T14:47:35.353Z,3.60
2022-08-29T14:50:09.852Z,3.20
2022-08-29T14:53:00.920Z,3.90
2022-08-29T14:55:34.186Z,3.50
2022-08-29T14:58:06.563Z,4.90
2022-08-29T15:00:38.487Z,2.90
2022-08-29T15:03:09.461Z,4.20
2022-08-29T15:05:39.559Z,3.00
2022-08-29T15:08:15.496Z,3.20
2022-08-29T15:10:47.455Z,2.90
2022-08-29T15:13:18.073Z,4.00
2022-08-29T15:15:49.448Z,3.80
2022-08-29T15:18:59.518Z,4.50
2022-08-29T15:25:30.283Z,7.10
2022-08-29T15:28:21.865Z,4.50
2022-08-29T15:30:52.816Z,4.40
2022-08-29T15:33:23.547Z,3.50
2022-08-29T15:35:52.987Z,6.10
2022-08-29T15:38:24.248Z,3.40
2022-08-29T15:40:54.213Z,3.30
2022-08-29T15:43:41.388Z,4.50
2022-08-29T15:46:16.245Z,3.80
2022-08-29T15:48:53.064Z,4.70
2022-08-29T15:51:24.562Z,7.00
2022-08-29T15:53:56.398Z,3.40
2022-08-29T15:56:35.508Z,3.60
2022-08-29T15:59:07.361Z,5.30
2022-08-29T16:01:52.414Z,4.60
2022-08-29T16:04:25.144Z,4.60
2022-08-29T16:06:55.852Z,3.70
2022-08-29T16:09:34.034Z,5.70
2022-08-29T16:12:17.078Z,4.00
2022-08-29T16:15:09.797Z,4.40
2022-08-29T16:17:41.412Z,5.30
2022-08-29T16:20:41.781Z,5.20
2022-08-29T16:27:06.055Z,5.30
2022-08-29T16:29:40.018Z,4.90
2022-08-29T16:32:10.315Z,6.80
2022-08-29T16:34:41.254Z,10.10
2022-08-29T16:37:58.499Z,6.00
2022-08-29T16:40:57.933Z,7.10
2022-08-29T16:43:32.670Z,5.30
2022-08-29T16:46:11.133Z,6.00
2022-08-29T16:48:41.392Z,6.80
2022-08-29T16:51:13.513Z,6.80
2022-08-29T16:56:35.011Z,6.70
2022-08-29T16:59:04.688Z,5.10
2022-08-29T17:01:47.723Z,5.70
2022-08-29T17:04:41.805Z,4.50
2022-08-29T17:07:15.786Z,7.30
2022-08-29T17:10:10.568Z,5.50
2022-08-29T17:12:40.087Z,6.90
2022-08-29T17:15:09.610Z,6.50
2022-08-29T17:17:41.002Z,6.50
2022-08-29T17:20:58.884Z,6.60
2022-08-29T17:24:16.056Z,6.60
2022-08-29T17:27:21.285Z,6.00
2022-08-29T17:34:22.058Z,5.70
2022-08-29T17:37:06.282Z,5.10
2022-08-29T17:39:44.841Z,6.00
2022-08-29T17:42:16.835Z,4.70
2022-08-29T17:44:54.050Z,6.10
2022-08-29T17:47:27.456Z,5.20
2022-08-29T17:50:07.632Z,6.20
2022-08-29T17:52:45.624Z,6.00
2022-08-29T17:55:16.032Z,6.10
2022-08-29T17:57:45.555Z,6.00
2022-08-29T18:07:49.073Z,5.40
2022-08-29T18:10:42.883Z,6.40
2022-08-29T18:13:16.665Z,6.80
2022-08-29T18:16:06.442Z,7.50
2022-08-29T18:19:24.254Z,6.80
2022-08-29T18:22:48.986Z,7.30
2022-08-29T18:26:03.831Z,6.30
2022-08-29T18:29:07.740Z,5.30
2022-08-29T18:31:38.731Z,6.90
2022-08-29T18:34:10.151Z,7.20
2022-08-29T18:37:13.011Z,6.60
2022-08-29T18:39:48.537Z,6.20
2022-08-29T18:42:38.751Z,7.70
2022-08-29T18:45:20.854Z,5.50
2022-08-29T18:48:54.384Z,5.20
2022-08-29T18:54:46.518Z,4.90
2022-08-29T18:57:19.991Z,5.40
2022-08-29T18:59:50.267Z,6.30
2022-08-29T19:02:21.214Z,6.00
2022-08-29T19:04:51.301Z,5.00
2022-08-29T19:07:24.466Z,4.80
2022-08-29T19:13:31.429Z,7.20
2022-08-29T19:19:25.454Z,6.70
2022-08-29T19:21:59.703Z,5.80
2022-08-29T19:24:34.122Z,4.70
2022-08-29T19:27:05.032Z,6.40
2022-08-29T19:30:08.612Z,5.40
2022-08-29T19:32:49.623Z,6.00
2022-08-29T19:38:49.826Z,4.80
2022-08-29T19:45:25.693Z,4.70
2022-08-29T19:47:55.903Z,5.60
2022-08-29T19:54:30.255Z,7.50
2022-08-29T19:57:04.269Z,6.10
2022-08-29T19:59:36.359Z,6.80
2022-08-29T20:02:10.583Z,7.30
2022-08-29T20:04:41.991Z,5.10
2022-08-29T20:07:20.157Z,5.40
2022-08-29T20:12:21.382Z,5.80
2022-08-29T20:15:39.676Z,4.30
2022-08-29T20:18:26.117Z,5.50
2022-08-29T20:25:34.544Z,5.50
2022-08-29T20:32:41.552Z,5.90
2022-08-29T20:35:14.256Z,8.30
2022-08-29T20:37:45.827Z,5.30
2022-08-29T20:40:47.139Z,5.40
2022-08-29T20:43:20.170Z,4.90
2022-08-29T20:45:50.450Z,4.10
2022-08-29T20:48:21.202Z,5.90
2022-08-29T20:51:04.920Z,6.90
2022-08-29T20:53:36.257Z,9.30
2022-08-29T20:56:10.138Z,5.30
2022-08-29T20:59:05.198Z,5.00
2022-08-29T21:05:48.916Z,4.40
2022-08-29T21:08:51.764Z,7.30
2022-08-29T21:11:24.885Z,4.80
2022-08-29T21:17:49.224Z,5.60
2022-08-29T21:20:53.959Z,6.30
2022-08-29T21:23:26.257Z,6.10
2022-08-29T21:25:57.349Z,5.80
2022-08-29T21:28:32.180Z,6.20
2022-08-29T21:31:07.790Z,5.90
2022-08-29T21:33:39.726Z,5.50
2022-08-29T21:36:14.706Z,6.00
2022-08-29T21:40:00.845Z,5.70
2022-08-29T21:42:33.271Z,7.50
2022-08-29T21:45:09.744Z,6.00
2022-08-29T21:47:40.624Z,8.10
2022-08-29T21:50:14.031Z,6.20
2022-08-29T21:53:06.749Z,5.00
2022-08-29T21:55:37.993Z,5.60
2022-08-29T21:58:08.398Z,8.20
2022-08-29T22:00:42.429Z,4.80
2022-08-29T22:03:16.170Z,6.20
2022-08-29T22:05:47.468Z,6.20
2022-08-29T22:08:22.367Z,7.00
2022-08-29T22:10:53.435Z,7.40
2022-08-29T22:13:23.816Z,9.10
2022-08-29T22:16:15.146Z,5.30
2022-08-29T22:19:14.928Z,8.10
2022-08-29T22:21:56.261Z,6.30
2022-08-29T22:24:30.438Z,5.60
2022-08-29T22:27:05.128Z,5.50
2022-08-29T22:29:35.597Z,8.10
2022-08-29T22:32:09.242Z,4.50
2022-08-29T22:34:42.766Z,5.50
2022-08-29T22:37:14.503Z,5.10
2022-08-29T22:39:44.334Z,6.40
2022-08-29T22:42:28.649Z,4.90
2022-08-29T22:45:04.339Z,7.00
2022-08-29T22:48:06.247Z,7.20
2022-08-29T22:50:39.410Z,6.20
2022-08-29T22:53:10.324Z,5.60
2022-08-29T22:55:40.923Z,6.20
2022-08-29T22:58:12.966Z,8.70
2022-08-29T23:00:42.565Z,5.80
2022-08-29T23:03:13.061Z,6.50
2022-08-29T23:05:46.596Z,5.80
2022-08-29T23:08:50.822Z,6.20
2022-08-29T23:11:26.048Z,6.60
2022-08-29T23:13:59.074Z,5.40
2022-08-29T23:16:33.596Z,7.20
2022-08-29T23:21:39.639Z,6.00
2022-08-29T23:24:14.107Z,5.90
2022-08-29T23:26:45.829Z,5.20
2022-08-29T23:29:16.660Z,6.70
2022-08-29T23:31:47.923Z,5.70
2022-08-29T23:34:18.894Z,6.80
2022-08-29T23:36:49.104Z,4.10
2022-08-29T23:39:24.435Z,7.30
2022-08-29T23:41:56.577Z,6.20
2022-08-29T23:44:26.583Z,5.50
2022-08-29T23:47:02.133Z,4.90
2022-08-29T23:49:34.778Z,4.80
2022-08-29T23:52:05.701Z,5.50
2022-08-29T23:54:39.232Z,5.00
2022-08-29T23:57:08.935Z,4.10
2022-08-29T23:59:59.397Z,4.70
